createdAt,value
2022-12-08T00:00:03.245Z,0.86
2022-12-08T00:03:34.020Z,0.88
2022-12-08T00:07:13.248Z,0.88
2022-12-08T00:10:51.563Z,0.85
2022-12-08T00:14:13.373Z,0.83
2022-12-08T00:17:34.854Z,0.82
2022-12-08T00:20:56.992Z,0.84
2022-12-08T00:24:19.812Z,0.84
2022-12-08T00:27:43.249Z,0.87
2022-12-08T00:31:09.206Z,0.89
2022-12-08T00:34:31.820Z,0.92
2022-12-08T00:37:59.090Z,0.96
2022-12-08T00:41:44.351Z,0.98
2022-12-08T00:45:08.479Z,1.01
2022-12-08T00:48:30.202Z,1.00
2022-12-08T00:51:51.937Z,1.01
2022-12-08T00:55:13.764Z,1.00
2022-12-08T00:58:35.747Z,1.00
2022-12-08T01:01:58.539Z,1.05
2022-12-08T01:05:20.236Z,1.04
2022-12-08T01:08:42.963Z,1.05
2022-12-08T01:12:04.750Z,1.03
2022-12-08T01:15:26.738Z,1.03
2022-12-08T01:18:50.094Z,1.05
2022-12-08T01:22:11.727Z,1.05
2022-12-08T01:25:35.594Z,1.05
2022-12-08T01:28:57.696Z,1.07
2022-12-08T01:32:19.226Z,1.07
2022-12-08T01:35:42.459Z,1.06
2022-12-08T01:39:05.966Z,1.09
2022-12-08T01:42:27.478Z,1.09
2022-12-08T01:45:49.359Z,1.11
2022-12-08T01:49:15.473Z,1.11
2022-12-08T01:52:41.566Z,1.11
2022-12-08T01:56:08.327Z,1.13
2022-12-08T01:59:31.891Z,1.14
2022-12-08T02:02:58.470Z,1.16
2022-12-08T02:06:21.326Z,1.18
2022-12-08T02:09:46.237Z,1.19
2022-12-08T02:13:10.835Z,1.20
2022-12-08T02:16:39.561Z,1.20
2022-12-08T02:20:33.659Z,1.20
2022-12-08T02:24:04.817Z,1.23
2022-12-08T02:27:38.880Z,1.24
2022-12-08T02:31:08.736Z,1.27
2022-12-08T02:34:41.763Z,1.28
2022-12-08T02:38:13.030Z,1.29
2022-12-08T02:41:43.557Z,1.31
2022-12-08T02:45:10.823Z,1.33
2022-12-08T02:48:34.662Z,1.33
2022-12-08T02:52:07.894Z,1.34
2022-12-08T02:55:34.882Z,1.36
2022-12-08T02:59:14.853Z,1.40
2022-12-08T03:02:46.936Z,1.42
2022-12-08T03:06:20.077Z,1.44
2022-12-08T03:09:48.480Z,1.44
2022-12-08T03:13:14.721Z,1.46
2022-12-08T03:16:39.617Z,1.47
2022-12-08T03:20:07.581Z,1.48
2022-12-08T03:23:29.653Z,1.48
2022-12-08T03:26:58.086Z,1.50
2022-12-08T03:30:20.038Z,1.49
2022-12-08T03:33:44.450Z,1.48
2022-12-08T03:37:06.290Z,1.46
2022-12-08T03:40:27.867Z,1.46
2022-12-08T03:43:52.744Z,1.48
2022-12-08T03:47:14.254Z,1.47
2022-12-08T03:50:36.007Z,1.48
2022-12-08T03:53:57.959Z,1.47
2022-12-08T03:57:19.830Z,1.48
2022-12-08T04:00:43.205Z,1.50
2022-12-08T04:04:05.093Z,1.52
2022-12-08T04:07:26.814Z,1.51
2022-12-08T04:10:48.608Z,1.53
2022-12-08T04:14:10.400Z,1.54
2022-12-08T04:17:33.415Z,1.55
2022-12-08T04:20:55.362Z,1.55
2022-12-08T04:24:17.190Z,1.57
2022-12-08T04:27:39.112Z,1.57
2022-12-08T04:31:01.470Z,1.58
2022-12-08T04:34:24.681Z,1.58
2022-12-08T04:37:46.441Z,1.57
2022-12-08T04:41:08.654Z,1.57
2022-12-08T04:44:30.309Z,1.59
2022-12-08T04:47:51.633Z,1.60
2022-12-08T04:51:17.932Z,1.62
2022-12-08T04:54:39.460Z,1.59
2022-12-08T04:58:02.879Z,1.59
2022-12-08T05:01:24.670Z,1.59
2022-12-08T05:04:46.626Z,1.63
2022-12-08T05:08:10.876Z,1.61
2022-12-08T05:11:32.720Z,1.62
2022-12-08T05:14:54.652Z,1.61
2022-12-08T05:18:16.606Z,1.62
2022-12-08T05:21:38.099Z,1.64
2022-12-08T05:25:01.420Z,1.66
2022-12-08T05:32:05.259Z,1.75
2022-12-08T05:35:26.975Z,1.77
2022-12-08T05:38:49.366Z,1.79
2022-12-08T05:42:12.242Z,1.81
2022-12-08T05:45:36.725Z,1.80
2022-12-08T05:49:00.618Z,1.81
2022-12-08T05:52:22.586Z,1.82
2022-12-08T05:55:44.787Z,1.85
2022-12-08T05:59:08.718Z,1.86
2022-12-08T06:02:30.189Z,1.88
2022-12-08T06:05:52.382Z,1.91
2022-12-08T06:09:14.171Z,1.94
2022-12-08T06:12:36.428Z,1.96
2022-12-08T06:16:05.363Z,1.98
2022-12-08T06:19:27.115Z,2.01
2022-12-08T06:22:48.534Z,2.06
2022-12-08T06:26:13.615Z,2.08
2022-12-08T06:29:35.492Z,2.12
2022-12-08T06:32:58.891Z,2.13
2022-12-08T06:36:23.350Z,2.17
2022-12-08T06:39:45.256Z,2.19
2022-12-08T06:43:07.146Z,2.21
2022-12-08T06:46:29.241Z,2.24
2022-12-08T06:49:52.647Z,2.24
2022-12-08T06:53:15.029Z,2.27
2022-12-08T06:56:36.725Z,2.28
2022-12-08T06:59:58.278Z,2.28
2022-12-08T07:03:20.103Z,2.29
2022-12-08T07:06:43.381Z,2.29
2022-12-08T07:10:05.714Z,2.30
2022-12-08T07:13:27.626Z,2.31
2022-12-08T07:16:49.375Z,2.34
2022-12-08T07:20:11.403Z,2.33
2022-12-08T07:23:34.991Z,2.34
2022-12-08T07:26:56.516Z,2.35
2022-12-08T07:30:18.489Z,2.35
2022-12-08T07:33:40.323Z,2.38
2022-12-08T07:37:02.996Z,2.40
2022-12-08T07:40:26.167Z,2.42
2022-12-08T07:43:48.588Z,2.42
2022-12-08T07:47:10.631Z,2.45
2022-12-08T07:50:32.651Z,2.45
2022-12-08T07:53:55.360Z,2.48
2022-12-08T07:57:18.259Z,2.48
2022-12-08T08:00:40.370Z,2.51
2022-12-08T08:04:04.513Z,2.53
2022-12-08T08:07:26.244Z,2.54
2022-12-08T08:10:48.413Z,2.56
2022-12-08T08:14:11.626Z,2.60
2022-12-08T08:17:33.497Z,2.65
2022-12-08T08:20:55.406Z,2.66
2022-12-08T08:24:17.667Z,2.68
2022-12-08T08:27:39.841Z,2.69
2022-12-08T08:31:03.769Z,2.71
2022-12-08T08:34:25.286Z,2.75
2022-12-08T08:37:49.128Z,2.80
2022-12-08T08:41:12.099Z,2.83
2022-12-08T08:44:33.939Z,2.89
2022-12-08T08:51:19.211Z,2.97
2022-12-08T08:54:41.272Z,2.99
2022-12-08T08:58:03.212Z,3.01
2022-12-08T09:01:28.956Z,3.07
2022-12-08T09:04:52.327Z,3.10
2022-12-08T09:08:13.981Z,3.12
2022-12-08T09:11:35.932Z,3.15
2022-12-08T09:14:57.955Z,3.19
2022-12-08T09:18:19.988Z,3.20
2022-12-08T09:21:43.355Z,3.20
2022-12-08T09:25:05.672Z,3.21
2022-12-08T09:28:27.734Z,3.25
2022-12-08T09:31:49.644Z,3.27
2022-12-08T09:35:11.604Z,3.30
2022-12-08T09:38:35.086Z,3.30
2022-12-08T09:42:00.975Z,3.33
2022-12-08T09:45:24.586Z,3.36
2022-12-08T09:48:49.606Z,3.41
2022-12-08T09:52:21.536Z,3.44
2022-12-08T09:55:47.969Z,3.50
2022-12-08T09:59:23.747Z,3.52
2022-12-08T10:02:48.342Z,3.52
2022-12-08T10:06:17.956Z,3.54
2022-12-08T10:09:43.351Z,3.58
2022-12-08T10:13:12.934Z,3.59
2022-12-08T10:16:37.971Z,3.61
2022-12-08T10:20:03.703Z,3.62
2022-12-08T10:23:34.362Z,3.65
2022-12-08T10:26:57.894Z,3.65
2022-12-08T10:30:22.552Z,3.66
2022-12-08T10:33:45.681Z,3.65
2022-12-08T10:37:11.143Z,3.62
2022-12-08T10:40:43.867Z,3.60
2022-12-08T10:44:10.831Z,3.61
2022-12-08T10:47:40.755Z,3.62
2022-12-08T10:51:05.915Z,3.62
2022-12-08T10:54:30.295Z,3.64
2022-12-08T10:57:52.245Z,3.64
2022-12-08T11:01:18.317Z,3.65
2022-12-08T11:04:41.431Z,3.69
2022-12-08T11:08:05.706Z,3.71
2022-12-08T11:11:44.971Z,3.71
2022-12-08T11:15:08.136Z,3.72
2022-12-08T11:18:32.200Z,3.74
2022-12-08T11:21:55.491Z,3.74
2022-12-08T11:25:20.997Z,3.76
2022-12-08T11:28:43.032Z,3.76
2022-12-08T11:32:10.162Z,3.78
2022-12-08T11:35:36.058Z,3.76
2022-12-08T11:39:02.015Z,3.79
2022-12-08T11:42:27.417Z,3.79
2022-12-08T11:45:54.977Z,3.74
2022-12-08T11:49:18.211Z,3.76
2022-12-08T11:52:46.159Z,3.76
2022-12-08T11:56:14.863Z,3.78
2022-12-08T11:59:39.756Z,3.77
2022-12-08T12:03:08.658Z,3.76
2022-12-08T12:06:55.433Z,3.76
2022-12-08T12:10:32.764Z,3.78
2022-12-08T12:14:06.121Z,3.79
2022-12-08T12:17:41.536Z,3.77
2022-12-08T12:21:08.811Z,3.78
2022-12-08T12:24:36.381Z,3.79
2022-12-08T12:28:03.790Z,3.80
2022-12-08T12:31:30.131Z,3.80
2022-12-08T12:34:56.334Z,3.78
2022-12-08T12:38:43.514Z,3.80
2022-12-08T12:42:06.368Z,3.81
2022-12-08T12:45:32.017Z,3.79
2022-12-08T12:49:34.086Z,3.79
2022-12-08T12:52:57.107Z,3.81
2022-12-08T12:56:48.290Z,3.80
2022-12-08T13:00:18.711Z,3.81
2022-12-08T13:03:43.447Z,3.80
2022-12-08T13:07:06.956Z,3.81
2022-12-08T13:10:32.744Z,3.83
2022-12-08T13:13:58.035Z,3.84
2022-12-08T13:17:27.119Z,3.84
2022-12-08T13:20:53.625Z,3.80
2022-12-08T13:24:29.909Z,3.84
2022-12-08T13:27:55.858Z,3.84
2022-12-08T13:31:38.465Z,3.85
2022-12-08T13:35:01.810Z,3.87
2022-12-08T13:38:29.386Z,3.88
2022-12-08T13:42:00.346Z,3.88
2022-12-08T13:46:12.171Z,3.90
2022-12-08T13:57:05.185Z,3.89
2022-12-08T14:00:28.398Z,3.93
2022-12-08T14:04:22.198Z,3.93
2022-12-08T14:07:35.092Z,3.91
2022-12-08T14:11:02.322Z,3.93
2022-12-08T14:15:01.296Z,3.92
2022-12-08T14:18:25.604Z,3.91
2022-12-08T14:21:57.378Z,3.91
2022-12-08T14:25:20.089Z,3.92
2022-12-08T14:28:45.233Z,3.91
2022-12-08T14:32:19.504Z,3.92
2022-12-08T14:35:42.694Z,3.93
2022-12-08T14:39:04.816Z,3.94
2022-12-08T14:42:28.416Z,3.91
2022-12-08T14:45:53.543Z,3.90
2022-12-08T14:49:33.739Z,3.89
2022-12-08T14:52:57.037Z,3.89
2022-12-08T14:56:23.562Z,3.89
2022-12-08T14:59:47.093Z,3.89
2022-12-08T15:03:09.004Z,3.90
2022-12-08T15:06:31.231Z,3.89
2022-12-08T15:10:11.398Z,3.87
2022-12-08T15:13:33.155Z,3.87
2022-12-08T15:16:55.382Z,3.87
2022-12-08T15:20:33.388Z,3.86
2022-12-08T15:23:57.219Z,3.87
2022-12-08T15:27:21.595Z,3.86
2022-12-08T15:30:43.458Z,3.83
2022-12-08T15:34:05.210Z,3.80
2022-12-08T15:37:27.418Z,3.76
2022-12-08T15:40:49.429Z,3.78
2022-12-08T15:44:12.518Z,3.72
2022-12-08T15:47:35.601Z,3.69
2022-12-08T15:50:57.783Z,3.71
2022-12-08T15:54:20.074Z,3.72
2022-12-08T15:58:38.246Z,3.71
2022-12-08T16:01:27.745Z,3.71
2022-12-08T16:08:46.227Z,3.70
2022-12-08T16:13:26.656Z,3.66
2022-12-08T16:16:21.430Z,3.61
2022-12-08T16:19:45.555Z,3.60
2022-12-08T16:23:26.379Z,3.58
2022-12-08T16:30:31.019Z,3.55
2022-12-08T16:33:53.178Z,3.53
2022-12-08T16:37:17.520Z,3.53
2022-12-08T16:40:59.219Z,3.54
2022-12-08T16:44:21.241Z,3.53
2022-12-08T16:47:45.574Z,3.52
2022-12-08T16:51:10.309Z,3.48
2022-12-08T16:54:33.575Z,3.49
2022-12-08T16:57:56.003Z,3.49
2022-12-08T17:01:19.615Z,3.46
2022-12-08T17:04:41.714Z,3.46
2022-12-08T17:08:04.008Z,3.45
2022-12-08T17:11:30.086Z,3.41
2022-12-08T17:14:52.050Z,3.37
2022-12-08T17:18:14.937Z,3.32
2022-12-08T17:21:37.415Z,3.28
2022-12-08T17:24:59.816Z,3.21
2022-12-08T17:28:51.590Z,3.15
2022-12-08T17:32:05.125Z,3.09
2022-12-08T17:35:27.083Z,3.03
2022-12-08T17:38:49.061Z,2.96
2022-12-08T17:42:11.159Z,2.92
2022-12-08T17:45:34.427Z,2.83
2022-12-08T17:48:55.906Z,2.76
2022-12-08T17:52:17.956Z,2.68
2022-12-08T17:55:40.908Z,2.63
2022-12-08T17:59:04.072Z,2.57
2022-12-08T18:02:27.286Z,2.53
2022-12-08T18:05:49.343Z,2.49
2022-12-08T18:09:10.914Z,2.49
2022-12-08T18:12:33.007Z,2.51
2022-12-08T18:15:54.574Z,2.42
2022-12-08T18:19:17.921Z,2.44
2022-12-08T18:22:40.135Z,2.49
2022-12-08T18:26:02.005Z,2.53
2022-12-08T18:29:24.523Z,2.55
2022-12-08T18:32:46.665Z,2.57
2022-12-08T18:36:11.765Z,2.56
2022-12-08T18:39:34.247Z,2.55
2022-12-08T18:42:55.741Z,2.51
2022-12-08T18:46:17.900Z,2.47
2022-12-08T18:49:39.538Z,2.44
2022-12-08T18:53:02.945Z,2.37
2022-12-08T18:56:27.708Z,2.30
2022-12-08T18:59:49.697Z,2.29
2022-12-08T19:03:11.527Z,2.21
2022-12-08T19:06:34.006Z,2.20
2022-12-08T19:09:59.124Z,2.14
2022-12-08T19:13:20.901Z,2.17
2022-12-08T19:16:42.459Z,2.18
2022-12-08T19:20:05.059Z,2.19
2022-12-08T19:23:29.118Z,2.14
2022-12-08T19:26:52.338Z,2.08
2022-12-08T19:30:15.292Z,2.03
2022-12-08T19:33:38.213Z,2.02
2022-12-08T19:36:59.954Z,2.03
2022-12-08T19:40:39.529Z,2.00
2022-12-08T19:44:20.130Z,1.97
2022-12-08T19:47:42.695Z,1.93
2022-12-08T19:51:05.398Z,1.89
2022-12-08T19:54:28.068Z,1.85
2022-12-08T19:57:50.224Z,1.79
2022-12-08T20:01:13.217Z,1.71
2022-12-08T20:04:35.346Z,1.66
2022-12-08T20:07:57.412Z,1.59
2022-12-08T20:11:18.941Z,1.55
2022-12-08T20:14:45.725Z,1.51
2022-12-08T20:18:09.134Z,1.48
2022-12-08T20:21:31.030Z,1.42
2022-12-08T20:24:58.405Z,1.46
2022-12-08T20:28:22.653Z,1.45
2022-12-08T20:31:44.730Z,1.47
2022-12-08T20:35:08.917Z,1.49
2022-12-08T20:38:31.603Z,1.49
2022-12-08T20:41:54.585Z,1.51
2022-12-08T20:45:16.514Z,1.52
2022-12-08T20:48:39.184Z,1.53
2022-12-08T20:52:02.614Z,1.54
2022-12-08T20:55:24.736Z,1.57
2022-12-08T20:58:47.030Z,1.59
2022-12-08T21:02:16.719Z,1.62
2022-12-08T21:05:38.994Z,1.65
2022-12-08T21:09:02.744Z,1.67
2022-12-08T21:12:24.505Z,1.71
2022-12-08T21:15:47.159Z,1.70
2022-12-08T21:19:09.315Z,1.75
2022-12-08T21:22:31.228Z,1.79
2022-12-08T21:25:54.621Z,1.82
2022-12-08T21:29:16.165Z,1.85
2022-12-08T21:32:39.625Z,1.87
2022-12-08T21:36:08.138Z,1.89
2022-12-08T21:39:30.181Z,1.88
2022-12-08T21:42:53.871Z,1.92
2022-12-08T21:46:20.751Z,1.93
2022-12-08T21:49:43.479Z,1.92
2022-12-08T21:53:06.192Z,1.92
2022-12-08T21:56:27.930Z,1.93
2022-12-08T21:59:52.080Z,1.94
2022-12-08T22:03:15.471Z,1.97
2022-12-08T22:06:37.900Z,1.95
2022-12-08T22:09:59.928Z,1.95
2022-12-08T22:13:21.704Z,1.94
2022-12-08T22:16:45.277Z,1.94
2022-12-08T22:20:08.658Z,1.98
2022-12-08T22:23:30.416Z,1.96
2022-12-08T22:26:51.888Z,1.94
2022-12-08T22:30:14.071Z,1.93
2022-12-08T22:33:37.618Z,1.93
2022-12-08T22:36:59.568Z,1.95
2022-12-08T22:40:21.196Z,1.99
2022-12-08T22:43:43.543Z,1.98
2022-12-08T22:47:05.452Z,1.96
2022-12-08T22:50:28.452Z,1.96
2022-12-08T22:53:51.336Z,1.91
2022-12-08T22:57:13.235Z,1.86
2022-12-08T23:00:35.475Z,1.81
2022-12-08T23:03:57.614Z,1.76
2022-12-08T23:07:21.022Z,1.70
2022-12-08T23:10:42.824Z,1.63
2022-12-08T23:14:04.792Z,1.56
2022-12-08T23:17:26.890Z,1.50
2022-12-08T23:20:48.980Z,1.43
2022-12-08T23:24:12.119Z,1.39
2022-12-08T23:27:34.317Z,1.33
2022-12-08T23:30:56.146Z,1.25
2022-12-08T23:34:17.935Z,1.19
2022-12-08T23:37:39.755Z,1.12
2022-12-08T23:41:03.489Z,1.06
2022-12-08T23:44:25.062Z,0.98
2022-12-08T23:47:47.146Z,0.91
2022-12-08T23:51:09.278Z,0.86
2022-12-08T23:54:31.336Z,0.79
2022-12-08T23:57:54.890Z,0.73
